Time;durP1;ratioP1;P1;durP2;ratioP2;P2;SDS_P1;SDS_P2;PMS_P1;PMS_P2;Temp;Humidity;BMP_temperature;BMP_pressure;BME280_temperature;BME280_humidity;BME280_pressure;Samples;Min_cycle;Max_cycle;Signal;HPM_P1;HPM_P2
2022/10/22 00:02:21;;;;;;;2.93;1.30;;;17.00;99.90;;;;;;5017265;28;20219;-66
2022/10/22 00:04:48;;;;;;;2.70;1.50;;;17.00;99.90;;;;;;5017297;28;20188;-65
2022/10/22 00:07:15;;;;;;;3.07;1.27;;;17.00;99.90;;;;;;5022750;28;20199;-65
2022/10/22 00:09:41;;;;;;;1.73;1.37;;;17.00;99.90;;;;;;5021918;28;20964;-64
2022/10/22 00:12:07;;;;;;;3.10;1.37;;;17.00;99.90;;;;;;5021161;28;20454;-66
2022/10/22 00:14:32;;;;;;;4.90;1.40;;;17.00;99.90;;;;;;5017473;28;20777;-64
2022/10/22 00:16:59;;;;;;;7.33;1.30;;;17.10;99.90;;;;;;5015697;28;20208;-66
2022/10/22 00:19:26;;;;;;;2.90;1.30;;;17.10;99.90;;;;;;5014341;28;20184;-64
2022/10/22 00:21:51;;;;;;;2.63;1.07;;;17.00;99.90;;;;;;5019372;28;20498;-65
2022/10/22 00:24:17;;;;;;;2.83;1.20;;;17.00;99.90;;;;;;5020546;28;20724;-65
2022/10/22 00:26:43;;;;;;;3.30;1.30;;;16.80;99.90;;;;;;5018691;28;20673;-65
2022/10/22 00:29:08;;;;;;;2.87;1.20;;;16.80;99.90;;;;;;5017035;28;20191;-64
2022/10/22 00:31:34;;;;;;;1.60;1.20;;;16.80;99.90;;;;;;5020027;28;20216;-66
2022/10/22 00:34:00;;;;;;;2.03;1.20;;;16.80;99.90;;;;;;5008755;28;20207;-65
2022/10/22 00:36:26;;;;;;;2.17;1.30;;;16.70;99.90;;;;;;5018542;28;20210;-65
2022/10/22 00:38:52;;;;;;;2.03;1.27;;;16.70;99.90;;;;;;5015606;28;21049;-66
2022/10/22 00:41:18;;;;;;;2.60;1.20;;;16.70;99.90;;;;;;5017031;28;20197;-64
2022/10/22 00:44:01;;;;;;;1.93;1.20;;;16.80;99.90;;;;;;5017192;28;20184;-65
2022/10/22 00:46:27;;;;;;;2.20;1.60;;;16.70;99.90;;;;;;5016438;28;20458;-65
2022/10/22 00:48:54;;;;;;;3.30;1.10;;;16.80;99.90;;;;;;5019794;28;20415;-65
2022/10/22 00:51:22;;;;;;;2.13;1.10;;;16.80;99.90;;;;;;5017253;28;20463;-65
2022/10/22 00:53:52;;;;;;;4.40;1.23;;;16.70;99.90;;;;;;5018922;28;20459;-65
2022/10/22 00:56:19;;;;;;;1.43;1.07;;;16.80;99.90;;;;;;5021851;28;20526;-65
2022/10/22 00:58:48;;;;;;;3.80;1.70;;;16.70;99.90;;;;;;5023457;28;20437;-65
2022/10/22 01:01:20;;;;;;;2.90;1.00;;;16.70;99.90;;;;;;5021355;28;21015;-65
2022/10/22 01:03:46;;;;;;;2.97;1.00;;;16.70;99.90;;;;;;5022788;28;20561;-65
2022/10/22 01:06:27;;;;;;;2.20;1.30;;;16.70;99.90;;;;;;5024199;28;20442;-64
2022/10/22 01:09:15;;;;;;;1.60;1.00;;;16.70;99.90;;;;;;5013556;28;20441;-65
2022/10/22 01:11:49;;;;;;;2.13;1.10;;;16.80;99.90;;;;;;5025223;28;20465;-65
2022/10/22 01:14:53;;;;;;;1.97;1.10;;;16.70;99.90;;;;;;5010844;28;20466;-65
2022/10/22 01:17:34;;;;;;;1.77;1.10;;;16.60;99.90;;;;;;5003136;28;20736;-64
2022/10/22 01:20:09;;;;;;;1.80;1.20;;;16.60;99.90;;;;;;5021583;28;20439;-64
2022/10/22 01:22:41;;;;;;;1.70;1.13;;;16.50;99.90;;;;;;5020813;28;20459;-64
2022/10/22 01:25:19;;;;;;;1.93;1.30;;;16.50;99.90;;;;;;5018476;28;20438;-64
2022/10/22 01:28:02;;;;;;;3.07;1.00;;;16.50;99.90;;;;;;5024192;28;20434;-65
2022/10/22 01:30:27;;;;;;;1.40;0.90;;;16.50;99.90;;;;;;5024888;28;20540;-65
2022/10/22 01:33:01;;;;;;;1.60;1.13;;;16.50;99.90;;;;;;5019435;28;20561;-64
2022/10/22 01:35:35;;;;;;;2.90;1.77;;;16.50;99.90;;;;;;5018737;28;20176;-65
2022/10/22 01:38:04;;;;;;;1.70;1.17;;;16.50;99.90;;;;;;5018818;28;20530;-65
2022/10/22 01:40:32;;;;;;;6.60;1.77;;;16.50;99.90;;;;;;5019575;28;20959;-65
2022/10/22 01:43:07;;;;;;;2.03;1.20;;;16.50;99.90;;;;;;5023724;28;20439;-65
2022/10/22 01:45:37;;;;;;;1.80;1.20;;;16.50;99.90;;;;;;5021829;28;20818;-66
2022/10/22 01:48:19;;;;;;;2.57;1.20;;;16.40;99.90;;;;;;5009336;28;20932;-66
2022/10/22 01:51:11;;;;;;;2.67;1.30;;;16.10;99.90;;;;;;5019687;28;20487;-65
2022/10/22 01:54:10;;;;;;;5.33;1.50;;;16.10;99.90;;;;;;5017822;28;20501;-65
2022/10/22 01:56:44;;;;;;;2.63;1.33;;;16.10;99.90;;;;;;5018524;28;20447;-66
2022/10/22 01:59:57;;;;;;;2.43;1.30;;;16.10;99.90;;;;;;5004133;28;21053;-65
2022/10/22 02:02:37;;;;;;;1.47;1.00;;;16.10;99.90;;;;;;4980613;28;20582;-65
2022/10/22 02:05:19;;;;;;;2.00;1.30;;;16.10;99.90;;;;;;5009312;28;20439;-64
2022/10/22 02:07:56;;;;;;;1.90;1.20;;;16.10;99.90;;;;;;5021304;28;20947;-64
2022/10/22 02:10:23;;;;;;;1.80;1.23;;;16.10;99.90;;;;;;5016588;28;20980;-65
2022/10/22 02:12:53;;;;;;;1.73;1.20;;;16.10;99.90;;;;;;5015509;28;20976;-65
2022/10/22 02:15:20;;;;;;;4.27;1.53;;;16.10;99.90;;;;;;5020905;28;20536;-65
2022/10/22 02:17:46;;;;;;;4.03;1.37;;;16.10;99.90;;;;;;5001444;28;20443;-65
2022/10/22 02:20:17;;;;;;;1.80;1.20;;;16.10;99.90;;;;;;5024712;28;20442;-65
2022/10/22 02:22:42;;;;;;;1.80;1.30;;;16.10;99.90;;;;;;5016630;28;20509;-64
2022/10/22 02:25:09;;;;;;;5.20;1.30;;;16.00;99.90;;;;;;5019851;28;20437;-64
2022/10/22 02:27:50;;;;;;;1.60;1.20;;;16.00;99.90;;;;;;5018313;28;20197;-65
2022/10/22 02:30:18;;;;;;;2.10;1.33;;;16.00;99.90;;;;;;5019125;28;20446;-65
2022/10/22 02:32:58;;;;;;;3.10;1.27;;;16.00;99.90;;;;;;5016672;28;20610;-65
2022/10/22 02:35:26;;;;;;;1.70;1.20;;;15.90;99.90;;;;;;5024790;28;20443;-65
2022/10/22 02:37:54;;;;;;;2.60;1.47;;;16.00;99.90;;;;;;5015630;28;20845;-65
2022/10/22 02:40:20;;;;;;;1.60;1.27;;;16.00;99.90;;;;;;5018233;28;20679;-65
2022/10/22 02:42:48;;;;;;;2.23;1.30;;;15.90;99.90;;;;;;5016450;28;20431;-65
2022/10/22 02:45:15;;;;;;;2.23;1.27;;;15.90;99.90;;;;;;5000035;28;20514;-65
2022/10/22 02:47:41;;;;;;;8.17;1.70;;;16.00;99.90;;;;;;5021445;28;20423;-66
2022/10/22 02:50:06;;;;;;;1.70;1.20;;;15.90;99.90;;;;;;5018791;28;20453;-65
2022/10/22 02:52:32;;;;;;;1.93;1.20;;;15.80;99.90;;;;;;5015767;28;20208;-66
2022/10/22 02:54:57;;;;;;;2.10;1.30;;;15.90;99.90;;;;;;5016208;28;20670;-65
2022/10/22 02:57:23;;;;;;;1.80;1.10;;;15.90;99.90;;;;;;5016564;28;20615;-64
2022/10/22 02:59:48;;;;;;;1.77;1.17;;;15.90;99.90;;;;;;5004782;28;20207;-65
2022/10/22 03:02:14;;;;;;;4.60;1.67;;;15.90;99.90;;;;;;5014288;28;20228;-64
2022/10/22 03:04:40;;;;;;;1.70;1.30;;;15.90;99.90;;;;;;5018110;28;20189;-63
2022/10/22 03:07:05;;;;;;;2.57;1.30;;;15.90;99.90;;;;;;5021723;28;20205;-64
2022/10/22 03:09:31;;;;;;;2.60;1.33;;;16.00;99.90;;;;;;5004565;28;20193;-64
2022/10/22 03:11:56;;;;;;;2.60;1.33;;;15.90;99.90;;;;;;5021028;28;20292;-67
2022/10/22 03:14:22;;;;;;;2.43;1.40;;;16.00;99.90;;;;;;5016138;28;20666;-64
2022/10/22 03:16:47;;;;;;;8.77;1.37;;;16.00;99.90;;;;;;5018826;28;20187;-64
2022/10/22 03:19:13;;;;;;;2.73;1.30;;;16.00;99.90;;;;;;5017714;28;20176;-65
2022/10/22 03:21:49;;;;;;;2.83;1.43;;;16.00;99.90;;;;;;5018420;28;20709;-64
2022/10/22 03:24:22;;;;;;;3.33;1.37;;;15.90;99.90;;;;;;5016191;28;20439;-64
2022/10/22 03:26:50;;;;;;;2.53;1.30;;;15.90;99.90;;;;;;5021104;28;20438;-64
2022/10/22 03:29:17;;;;;;;3.00;1.40;;;15.90;99.90;;;;;;5015528;28;21038;-65
2022/10/22 03:31:43;;;;;;;6.20;2.27;;;15.90;99.90;;;;;;5016464;28;21037;-65
2022/10/22 03:34:10;;;;;;;2.23;1.33;;;15.90;99.90;;;;;;5014585;28;20471;-65
2022/10/22 03:36:36;;;;;;;3.23;1.50;;;15.90;99.90;;;;;;5016528;28;20189;-65
2022/10/22 03:39:04;;;;;;;2.20;1.27;;;15.80;99.90;;;;;;5021221;28;20465;-65
2022/10/22 03:41:30;;;;;;;6.30;1.40;;;15.90;99.90;;;;;;5020477;28;20965;-65
2022/10/22 03:43:56;;;;;;;3.13;2.83;;;15.90;99.90;;;;;;5018710;28;20492;-64
2022/10/22 03:46:22;;;;;;;2.43;1.30;;;15.90;99.90;;;;;;5019088;28;20228;-65
2022/10/22 03:48:47;;;;;;;2.77;1.50;;;15.90;99.90;;;;;;5019312;28;20437;-66
2022/10/22 03:51:13;;;;;;;4.80;1.80;;;16.00;99.90;;;;;;5022421;28;20199;-65
2022/10/22 03:53:38;;;;;;;1.60;1.13;;;16.00;99.90;;;;;;5018796;28;20204;-65
2022/10/22 03:56:09;;;;;;;4.77;1.43;;;16.00;99.90;;;;;;5022552;28;20591;-64
2022/10/22 03:58:35;;;;;;;4.67;1.50;;;16.00;99.90;;;;;;5015339;28;20243;-64
2022/10/22 04:01:05;;;;;;;1.80;1.40;;;16.00;99.90;;;;;;5019516;28;20463;-64
2022/10/22 04:03:30;;;;;;;1.60;1.20;;;15.90;99.90;;;;;;5020095;28;20438;-65
2022/10/22 04:06:04;;;;;;;4.40;1.60;;;15.90;99.90;;;;;;5022446;28;20494;-64
2022/10/22 04:08:30;;;;;;;2.77;1.30;;;15.90;99.90;;;;;;5017641;28;20191;-65
2022/10/22 04:10:55;;;;;;;1.63;1.20;;;15.80;99.90;;;;;;5022351;28;20465;-65
2022/10/22 04:13:21;;;;;;;4.20;1.43;;;15.80;99.90;;;;;;5019126;28;20284;-65
2022/10/22 04:15:47;;;;;;;2.97;1.50;;;15.80;99.90;;;;;;5019894;28;20216;-66
2022/10/22 04:18:12;;;;;;;2.23;1.27;;;15.80;99.90;;;;;;5019269;28;20204;-66
2022/10/22 04:20:39;;;;;;;1.67;1.23;;;15.80;99.90;;;;;;5021460;28;20220;-65
2022/10/22 04:23:05;;;;;;;2.17;1.40;;;15.70;99.90;;;;;;5013250;28;20211;-65
2022/10/22 04:25:30;;;;;;;2.93;1.40;;;15.60;99.90;;;;;;5022359;28;21128;-66
2022/10/22 04:27:56;;;;;;;2.30;1.40;;;15.70;99.90;;;;;;5015815;28;20189;-65
2022/10/22 04:30:22;;;;;;;2.83;1.30;;;15.70;99.90;;;;;;5018767;28;20196;-64
2022/10/22 04:32:47;;;;;;;6.90;1.70;;;15.70;99.90;;;;;;5015491;28;20188;-64
2022/10/22 04:35:13;;;;;;;5.93;1.70;;;15.60;99.90;;;;;;5017565;28;20220;-65
2022/10/22 04:37:38;;;;;;;2.43;1.53;;;15.60;99.90;;;;;;5017304;28;20626;-65
2022/10/22 04:40:05;;;;;;;2.83;1.40;;;15.50;99.90;;;;;;5016501;28;20188;-64
2022/10/22 04:42:31;;;;;;;3.13;1.60;;;15.50;99.90;;;;;;5019846;28;20291;-64
2022/10/22 04:44:56;;;;;;;2.13;1.50;;;15.40;99.90;;;;;;5018624;28;20928;-65
2022/10/22 04:47:22;;;;;;;1.60;1.20;;;15.40;99.90;;;;;;5018646;28;20421;-65
2022/10/22 04:49:47;;;;;;;7.73;2.00;;;15.40;99.90;;;;;;5017564;28;20231;-64
2022/10/22 04:52:13;;;;;;;2.10;1.40;;;15.50;99.90;;;;;;4985387;28;20220;-65
2022/10/22 04:54:39;;;;;;;2.17;1.60;;;15.50;99.90;;;;;;5004694;28;20295;-65
2022/10/22 04:57:04;;;;;;;3.93;1.70;;;15.50;99.90;;;;;;5015555;28;20209;-65
2022/10/22 04:59:30;;;;;;;2.00;1.70;;;15.50;99.90;;;;;;5013488;28;20185;-64
2022/10/22 05:01:55;;;;;;;2.80;1.60;;;15.50;99.90;;;;;;5000076;28;21865;-66
2022/10/22 05:04:21;;;;;;;4.13;1.50;;;15.50;99.90;;;;;;5014245;28;20224;-65
2022/10/22 05:06:47;;;;;;;7.30;5.03;;;15.50;99.90;;;;;;5015021;28;20197;-66
2022/10/22 05:09:15;;;;;;;2.10;1.50;;;15.60;99.90;;;;;;5013077;28;20195;-65
2022/10/22 05:11:47;;;;;;;2.83;1.60;;;15.60;99.90;;;;;;5017688;28;20529;-65
2022/10/22 05:14:14;;;;;;;1.83;1.53;;;15.50;99.90;;;;;;5016529;28;20487;-65
2022/10/22 05:16:39;;;;;;;4.07;1.67;;;15.60;99.90;;;;;;5018138;28;20496;-65
2022/10/22 05:19:06;;;;;;;3.17;1.77;;;15.60;99.90;;;;;;5006279;28;20432;-64
2022/10/22 05:21:32;;;;;;;3.23;1.83;;;15.60;99.90;;;;;;5019981;28;20208;-65
2022/10/22 05:24:01;;;;;;;2.50;1.70;;;15.60;99.90;;;;;;5015855;28;20443;-65
2022/10/22 05:26:28;;;;;;;2.43;1.67;;;15.60;99.90;;;;;;5015827;28;20434;-64
2022/10/22 05:28:53;;;;;;;2.63;1.70;;;15.60;99.90;;;;;;5015182;28;20431;-64
2022/10/22 05:31:19;;;;;;;3.90;2.10;;;15.50;99.90;;;;;;5012167;28;20590;-66
2022/10/22 05:33:45;;;;;;;2.10;1.67;;;15.50;99.90;;;;;;5015173;28;20259;-65
2022/10/22 05:36:17;;;;;;;3.03;1.70;;;15.50;99.90;;;;;;5016429;28;20191;-65
2022/10/22 05:38:43;;;;;;;2.27;1.67;;;15.50;99.90;;;;;;5013811;28;21460;-65
2022/10/22 05:41:11;;;;;;;2.77;1.70;;;15.50;99.90;;;;;;5021382;28;20510;-65
2022/10/22 05:43:38;;;;;;;2.53;1.70;;;15.50;99.90;;;;;;5018501;28;20215;-66
2022/10/22 05:46:09;;;;;;;3.90;1.97;;;15.50;99.90;;;;;;5018277;28;21139;-65
2022/10/22 05:48:35;;;;;;;4.70;1.60;;;15.50;99.90;;;;;;5019482;28;20864;-65
2022/10/22 05:51:09;;;;;;;3.90;1.87;;;15.50;99.90;;;;;;5026304;28;20555;-66
2022/10/22 05:53:39;;;;;;;3.37;1.90;;;15.50;99.90;;;;;;5019378;28;20216;-65
2022/10/22 05:56:11;;;;;;;3.50;2.20;;;15.50;99.90;;;;;;4998608;28;20447;-65
2022/10/22 05:58:36;;;;;;;2.13;1.60;;;15.50;99.90;;;;;;5022604;28;20489;-65
2022/10/22 06:01:04;;;;;;;3.67;1.97;;;15.40;99.90;;;;;;5021618;28;20455;-65
2022/10/22 06:03:30;;;;;;;4.37;2.10;;;15.40;99.90;;;;;;5020311;28;20196;-65
2022/10/22 06:05:58;;;;;;;8.60;2.40;;;15.40;99.90;;;;;;5021402;28;20455;-66
2022/10/22 06:08:24;;;;;;;5.00;2.10;;;15.40;99.90;;;;;;5023915;28;20718;-66
2022/10/22 06:10:49;;;;;;;4.43;2.17;;;15.40;99.90;;;;;;5019528;28;20517;-66
2022/10/22 06:13:15;;;;;;;9.00;2.83;;;15.40;99.90;;;;;;5025090;28;20204;-66
2022/10/22 06:15:40;;;;;;;2.80;2.10;;;15.50;99.90;;;;;;5020131;28;20182;-66
2022/10/22 06:18:06;;;;;;;4.50;2.30;;;15.40;99.90;;;;;;5021869;28;20212;-66
2022/10/22 06:20:33;;;;;;;4.60;1.90;;;15.50;99.90;;;;;;5021885;28;20322;-66
2022/10/22 06:22:59;;;;;;;6.90;1.90;;;15.40;99.90;;;;;;5007321;28;20176;-66
2022/10/22 06:25:25;;;;;;;2.40;2.10;;;15.40;99.90;;;;;;5015508;28;21012;-66
2022/10/22 06:27:50;;;;;;;2.20;1.80;;;15.50;99.90;;;;;;5015144;28;20559;-67
2022/10/22 06:30:16;;;;;;;3.70;2.00;;;15.40;99.90;;;;;;5015849;28;20653;-64
2022/10/22 06:32:42;;;;;;;2.73;1.57;;;15.40;99.90;;;;;;5012343;28;20607;-65
2022/10/22 06:35:08;;;;;;;2.70;1.87;;;15.40;99.90;;;;;;5015100;28;20209;-66
2022/10/22 06:37:33;;;;;;;2.50;1.77;;;15.40;99.90;;;;;;5014694;28;20184;-66
2022/10/22 06:39:59;;;;;;;3.60;1.90;;;15.60;99.90;;;;;;5013712;28;20700;-65
2022/10/22 06:42:24;;;;;;;1.87;1.50;;;15.50;99.90;;;;;;5012996;28;20347;-66
2022/10/22 06:44:50;;;;;;;6.30;2.90;;;15.50;99.90;;;;;;5018170;28;20204;-65
2022/10/22 06:47:15;;;;;;;8.00;2.30;;;15.50;99.90;;;;;;5013329;28;20268;-66
2022/10/22 06:49:41;;;;;;;5.87;2.30;;;15.50;99.90;;;;;;5016368;28;20221;-66
2022/10/22 06:52:07;;;;;;;3.47;2.43;;;15.50;99.90;;;;;;5015585;28;20216;-66
2022/10/22 06:54:32;;;;;;;4.47;1.70;;;15.50;99.90;;;;;;5016730;28;20649;-66
2022/10/22 06:56:58;;;;;;;2.90;1.60;;;15.60;99.90;;;;;;5014222;28;20824;-65
2022/10/22 06:59:24;;;;;;;3.70;3.00;;;15.60;99.90;;;;;;5015126;28;20184;-66
2022/10/22 07:01:49;;;;;;;2.60;2.20;;;15.60;99.90;;;;;;5008935;28;20200;-66
2022/10/22 07:04:15;;;;;;;2.60;1.80;;;15.60;99.90;;;;;;4995011;28;20189;-65
2022/10/22 07:06:41;;;;;;;2.80;2.00;;;15.60;99.90;;;;;;5011318;28;20196;-65
2022/10/22 07:09:06;;;;;;;2.43;1.50;;;15.70;99.90;;;;;;5016369;28;20207;-65
2022/10/22 07:11:39;;;;;;;3.20;1.77;;;15.80;99.90;;;;;;5015893;28;20220;-66
2022/10/22 07:14:08;;;;;;;3.03;2.00;;;15.90;99.90;;;;;;5022106;28;20323;-66
2022/10/22 07:16:33;;;;;;;3.20;1.50;;;15.90;99.90;;;;;;5005548;28;20873;-66
2022/10/22 07:19:03;;;;;;;3.10;1.87;;;15.80;99.90;;;;;;5009882;28;20490;-66
2022/10/22 07:21:29;;;;;;;6.40;2.00;;;15.80;99.90;;;;;;5009510;28;20212;-66
2022/10/22 07:23:55;;;;;;;3.17;1.90;;;15.80;99.90;;;;;;5010106;28;20454;-66
2022/10/22 07:26:23;;;;;;;2.43;1.80;;;15.80;99.90;;;;;;5020501;28;20478;-66
2022/10/22 07:28:49;;;;;;;3.10;2.07;;;15.80;99.90;;;;;;5015936;28;20443;-66
2022/10/22 07:31:16;;;;;;;3.77;1.60;;;15.80;99.90;;;;;;5016140;28;20462;-66
2022/10/22 07:33:42;;;;;;;3.80;1.90;;;15.80;99.90;;;;;;5014684;28;20471;-66
2022/10/22 07:36:19;;;;;;;3.70;1.80;;;15.80;99.90;;;;;;5015693;28;20501;-65
2022/10/22 07:38:46;;;;;;;20.47;2.80;;;15.90;99.90;;;;;;5021137;28;20188;-67
2022/10/22 07:41:14;;;;;;;2.10;1.60;;;15.80;99.90;;;;;;5019192;28;20529;-66
2022/10/22 07:43:39;;;;;;;2.23;1.70;;;15.80;99.90;;;;;;5019125;28;20444;-65
2022/10/22 07:46:07;;;;;;;3.57;2.50;;;15.80;99.90;;;;;;5015348;28;20487;-65
2022/10/22 07:48:34;;;;;;;4.70;1.63;;;15.80;99.90;;;;;;5003486;28;20180;-66
2022/10/22 07:51:00;;;;;;;3.73;1.83;;;15.90;99.90;;;;;;5018014;28;20450;-66
2022/10/22 07:53:25;;;;;;;8.13;2.00;;;15.90;99.90;;;;;;5015280;28;20472;-66
2022/10/22 07:55:51;;;;;;;1.90;1.70;;;15.90;99.90;;;;;;5015255;28;20181;-65
2022/10/22 07:58:19;;;;;;;3.20;2.23;;;16.00;99.90;;;;;;5018508;28;20185;-66
2022/10/22 08:00:45;;;;;;;2.70;1.87;;;16.00;99.90;;;;;;4989745;28;22837;-64
2022/10/22 08:03:12;;;;;;;1.80;1.40;;;16.10;99.90;;;;;;5010828;28;20445;-66
2022/10/22 08:05:38;;;;;;;5.17;1.87;;;16.10;99.90;;;;;;5013081;28;20450;-64
2022/10/22 08:08:05;;;;;;;3.60;1.53;;;16.30;99.90;;;;;;5016966;28;20669;-63
2022/10/22 08:10:31;;;;;;;6.13;1.83;;;16.30;99.90;;;;;;5017238;28;20555;-65
2022/10/22 08:12:57;;;;;;;4.30;1.60;;;16.30;99.90;;;;;;5012829;28;20424;-65
2022/10/22 08:15:24;;;;;;;4.83;1.50;;;16.30;99.90;;;;;;5003238;28;20490;-65
2022/10/22 08:17:50;;;;;;;2.60;1.70;;;16.30;99.90;;;;;;5017708;28;20223;-64
2022/10/22 08:20:15;;;;;;;5.07;1.63;;;16.40;99.90;;;;;;5019312;28;20807;-66
2022/10/22 08:22:41;;;;;;;2.40;1.40;;;16.40;99.90;;;;;;5013542;28;20192;-67
2022/10/22 08:25:07;;;;;;;2.13;1.60;;;16.50;99.90;;;;;;5016379;28;20184;-66
2022/10/22 08:27:33;;;;;;;4.40;2.20;;;16.50;99.90;;;;;;5014963;28;20561;-66
2022/10/22 08:29:58;;;;;;;2.70;2.00;;;16.50;99.90;;;;;;5013208;28;20532;-66
2022/10/22 08:32:24;;;;;;;3.07;1.90;;;16.60;99.90;;;;;;5014204;28;20246;-67
2022/10/22 08:34:50;;;;;;;2.37;1.53;;;16.50;99.90;;;;;;5015305;28;20258;-65
2022/10/22 08:37:16;;;;;;;2.90;1.70;;;16.50;99.90;;;;;;5010949;28;20446;-66
2022/10/22 08:39:42;;;;;;;3.17;2.43;;;16.50;99.90;;;;;;4990827;28;20176;-64
2022/10/22 08:42:29;;;;;;;3.40;2.17;;;16.40;99.90;;;;;;5013871;28;20469;-64
2022/10/22 08:45:07;;;;;;;4.30;2.50;;;16.40;99.90;;;;;;5008025;28;20442;-65
2022/10/22 08:48:00;;;;;;;2.47;1.80;;;16.50;99.90;;;;;;5014502;28;20454;-65
2022/10/22 08:50:56;;;;;;;6.33;1.90;;;16.40;99.90;;;;;;5008940;28;20555;-66
2022/10/22 08:53:30;;;;;;;2.53;1.77;;;16.40;99.90;;;;;;5004699;28;20472;-66
2022/10/22 08:55:57;;;;;;;3.13;2.20;;;16.50;99.90;;;;;;5011396;28;20423;-67
2022/10/22 08:58:34;;;;;;;3.23;2.27;;;16.60;99.90;;;;;;5011993;28;20462;-65
2022/10/22 09:01:05;;;;;;;3.40;2.07;;;16.50;99.90;;;;;;4999800;28;20458;-67
2022/10/22 09:03:41;;;;;;;3.27;2.10;;;16.60;99.90;;;;;;5006944;28;20815;-67
2022/10/22 09:06:18;;;;;;;4.10;2.17;;;16.50;99.90;;;;;;5009041;28;20442;-66
2022/10/22 09:08:46;;;;;;;2.90;2.37;;;16.60;99.90;;;;;;5014985;28;21472;-67
2022/10/22 09:11:11;;;;;;;2.50;2.00;;;16.70;99.90;;;;;;5012446;28;20494;-66
2022/10/22 09:13:38;;;;;;;3.87;1.70;;;16.70;99.90;;;;;;5015350;28;20565;-67
2022/10/22 09:16:29;;;;;;;3.23;2.17;;;16.70;99.90;;;;;;4999604;28;20247;-67
2022/10/22 09:19:16;;;;;;;2.93;1.80;;;16.70;99.90;;;;;;5008521;28;20432;-68
2022/10/22 09:22:00;;;;;;;2.97;2.10;;;16.90;99.90;;;;;;5019214;22;20498;-66
2022/10/22 09:24:42;;;;;;;3.20;1.80;;;16.90;99.90;;;;;;5015664;28;20438;-66
2022/10/22 09:27:17;;;;;;;3.97;1.93;;;17.00;99.90;;;;;;5004731;28;20442;-66
2022/10/22 09:29:44;;;;;;;3.13;1.83;;;17.00;99.90;;;;;;5018218;28;20442;-65
2022/10/22 09:32:10;;;;;;;2.30;1.63;;;17.00;99.90;;;;;;5021510;28;20469;-67
2022/10/22 09:34:36;;;;;;;2.83;1.90;;;17.10;99.90;;;;;;5016070;28;20472;-65
2022/10/22 09:37:05;;;;;;;5.17;1.87;;;17.00;99.90;;;;;;5001309;28;20303;-66
2022/10/22 09:39:38;;;;;;;3.60;1.90;;;17.10;99.90;;;;;;5015664;28;20184;-66
2022/10/22 09:42:04;;;;;;;4.67;2.00;;;17.20;99.90;;;;;;5025079;28;20450;-66
2022/10/22 09:44:33;;;;;;;3.27;1.43;;;17.20;99.90;;;;;;5014368;28;20942;-65
2022/10/22 09:47:02;;;;;;;3.00;1.70;;;17.20;99.90;;;;;;5018097;28;20858;-64
2022/10/22 09:49:31;;;;;;;3.50;1.83;;;17.40;99.90;;;;;;5015927;28;21003;-66
2022/10/22 09:51:59;;;;;;;2.63;1.70;;;17.40;99.90;;;;;;4982880;28;22277;-66
2022/10/22 09:54:45;;;;;;;2.13;1.47;;;17.40;99.90;;;;;;5012743;28;20470;-68
2022/10/22 09:57:21;;;;;;;2.90;1.40;;;17.50;99.90;;;;;;5018263;28;20471;-66
2022/10/22 09:59:51;;;;;;;2.57;1.83;;;17.60;99.90;;;;;;5015929;28;20438;-66
2022/10/22 10:02:20;;;;;;;2.17;1.50;;;17.70;99.90;;;;;;5019843;28;20454;-66
2022/10/22 10:04:51;;;;;;;1.93;1.43;;;17.70;99.90;;;;;;5019617;28;20540;-64
2022/10/22 10:07:30;;;;;;;1.70;1.40;;;17.80;99.90;;;;;;5018218;28;20439;-66
2022/10/22 10:09:56;;;;;;;2.20;1.50;;;17.90;99.90;;;;;;5018594;28;20541;-68
2022/10/22 10:12:38;;;;;;;2.10;1.90;;;17.90;99.90;;;;;;5021786;28;20480;-66
2022/10/22 10:15:35;;;;;;;4.00;1.80;;;18.10;99.90;;;;;;5019757;28;20553;-66
2022/10/22 10:18:40;;;;;;;2.53;1.50;;;18.10;99.90;;;;;;5020282;28;20951;-66
2022/10/22 10:21:17;;;;;;;2.10;1.60;;;18.20;99.90;;;;;;5027946;28;20497;-65
2022/10/22 10:24:07;;;;;;;4.23;1.53;;;18.30;99.90;;;;;;5019608;28;20557;-65
2022/10/22 10:26:33;;;;;;;2.00;1.57;;;18.30;99.90;;;;;;5024475;28;21021;-65
2022/10/22 10:29:12;;;;;;;4.67;1.80;;;18.40;99.90;;;;;;5024418;28;20433;-66
2022/10/22 10:32:11;;;;;;;2.53;1.60;;;18.40;99.90;;;;;;5018607;28;20236;-68
2022/10/22 10:35:01;;;;;;;2.20;1.37;;;18.50;99.90;;;;;;4966461;28;20477;-66
2022/10/22 10:37:43;;;;;;;2.93;1.50;;;18.60;99.90;;;;;;5014992;28;20451;-65
2022/10/22 10:40:39;;;;;;;2.30;1.50;;;18.70;99.90;;;;;;5013209;28;21230;-66
2022/10/22 10:43:17;;;;;;;3.37;1.60;;;18.90;99.90;;;;;;5014755;28;20981;-67
2022/10/22 10:46:06;;;;;;;2.80;1.90;;;19.10;99.90;;;;;;5000922;28;20964;-65
2022/10/22 10:48:48;;;;;;;2.10;1.60;;;19.10;99.90;;;;;;5022658;28;20439;-66
2022/10/22 10:51:36;;;;;;;2.03;1.50;;;19.20;99.90;;;;;;5015500;28;20562;-66
2022/10/22 10:54:11;;;;;;;3.77;1.70;;;19.20;99.90;;;;;;5016317;28;20466;-68
2022/10/22 10:56:57;;;;;;;3.50;1.87;;;19.20;99.90;;;;;;5022115;28;20443;-66
2022/10/22 11:00:00;;;;;;;2.67;2.37;;;19.20;99.90;;;;;;5023268;28;20431;-66
2022/10/22 11:02:47;;;;;;;2.97;2.33;;;19.30;99.90;;;;;;5017005;28;20458;-66
2022/10/22 11:05:33;;;;;;;2.80;1.60;;;19.40;99.90;;;;;;5010172;28;20439;-66
2022/10/22 11:08:20;;;;;;;2.67;1.60;;;19.40;99.90;;;;;;5015661;28;20829;-67
2022/10/22 11:11:09;;;;;;;3.33;1.70;;;19.40;99.90;;;;;;5024209;28;20907;-67
2022/10/22 11:13:49;;;;;;;3.00;1.80;;;19.50;99.90;;;;;;5015809;28;20467;-67
2022/10/22 11:16:36;;;;;;;3.73;1.60;;;19.50;99.90;;;;;;5015502;28;20441;-66
2022/10/22 11:19:17;;;;;;;3.73;1.87;;;19.50;99.90;;;;;;5019945;28;20699;-66
2022/10/22 11:22:04;;;;;;;5.63;1.60;;;19.60;99.90;;;;;;5020798;28;20841;-69
2022/10/22 11:24:34;;;;;;;3.43;1.43;;;19.70;99.90;;;;;;5019510;28;20442;-67
2022/10/22 11:27:29;;;;;;;3.53;2.10;;;19.80;99.90;;;;;;5019817;28;20458;-66
2022/10/22 11:30:13;;;;;;;4.67;1.97;;;19.90;99.90;;;;;;5020854;28;20445;-68
2022/10/22 11:32:42;;;;;;;2.17;1.70;;;19.90;99.90;;;;;;5000042;28;20427;-68
2022/10/22 11:35:13;;;;;;;3.40;1.70;;;20.00;99.90;;;;;;5014553;28;20512;-66
2022/10/22 11:37:41;;;;;;;4.27;1.67;;;20.10;99.90;;;;;;5014336;28;20809;-66
2022/10/22 11:40:20;;;;;;;3.93;1.37;;;20.10;99.90;;;;;;5016177;28;20465;-66
2022/10/22 11:42:52;;;;;;;2.83;1.70;;;20.30;99.90;;;;;;5015582;28;20513;-66
2022/10/22 11:45:24;;;;;;;3.60;2.30;;;20.40;99.90;;;;;;5020909;28;20439;-67
2022/10/22 11:48:05;;;;;;;2.63;1.50;;;20.60;99.90;;;;;;5018830;28;20435;-66
2022/10/22 11:50:40;;;;;;;6.13;1.93;;;21.10;99.90;;;;;;5011919;28;20446;-68
2022/10/22 11:53:18;;;;;;;4.40;2.47;;;21.60;99.90;;;;;;5016459;28;20522;-67
2022/10/22 11:55:54;;;;;;;3.13;1.70;;;22.00;99.90;;;;;;5017409;28;21142;-67
2022/10/22 11:58:33;;;;;;;4.80;1.93;;;22.30;99.90;;;;;;5026072;28;20482;-67
2022/10/22 12:01:01;;;;;;;3.90;2.03;;;22.50;99.90;;;;;;5022126;28;20607;-66
2022/10/22 12:03:30;;;;;;;5.50;1.70;;;22.70;99.90;;;;;;5018430;28;20427;-67
2022/10/22 12:06:11;;;;;;;4.80;1.80;;;22.50;99.90;;;;;;5021828;28;20439;-67
2022/10/22 12:08:49;;;;;;;5.87;2.23;;;22.90;99.90;;;;;;5022242;28;20435;-66
2022/10/22 12:11:34;;;;;;;2.33;1.50;;;23.00;99.90;;;;;;5021825;28;20541;-68
2022/10/22 12:14:25;;;;;;;5.30;1.97;;;23.20;99.90;;;;;;5017340;28;20564;-67
2022/10/22 12:16:52;;;;;;;2.90;2.00;;;23.80;99.90;;;;;;5015641;28;20431;-67
2022/10/22 12:19:20;;;;;;;2.20;1.57;;;24.20;99.90;;;;;;5001718;28;20441;-67
2022/10/22 12:21:54;;;;;;;4.43;1.63;;;24.60;99.90;;;;;;5022408;28;21025;-67
2022/10/22 12:24:22;;;;;;;5.73;2.17;;;24.80;99.90;;;;;;5018957;28;20444;-67
2022/10/22 12:26:51;;;;;;;4.47;1.60;;;24.60;99.90;;;;;;5010570;28;20442;-67
2022/10/22 12:29:18;;;;;;;2.60;1.90;;;24.40;99.90;;;;;;5012490;28;20435;-67
2022/10/22 12:31:45;;;;;;;4.50;1.80;;;24.10;99.90;;;;;;5015469;28;20462;-67
2022/10/22 12:34:14;;;;;;;5.73;1.93;;;24.00;99.90;;;;;;5023039;28;20968;-67
2022/10/22 12:36:40;;;;;;;2.30;1.50;;;24.00;99.90;;;;;;5022357;28;20434;-67
2022/10/22 12:39:23;;;;;;;2.27;1.70;;;24.10;99.90;;;;;;5031216;28;20430;-67
2022/10/22 12:41:52;;;;;;;4.43;1.80;;;24.10;99.90;;;;;;5023424;28;20849;-67
2022/10/22 12:44:17;;;;;;;5.43;1.77;;;24.20;99.90;;;;;;5027343;28;20439;-68
2022/10/22 12:46:45;;;;;;;2.20;2.00;;;24.30;99.90;;;;;;5025148;28;20534;-67
2022/10/22 12:49:19;;;;;;;5.40;1.70;;;24.60;99.90;;;;;;5025737;28;20184;-67
2022/10/22 12:51:46;;;;;;;3.70;1.80;;;24.80;99.90;;;;;;5021707;28;20486;-67
2022/10/22 12:54:25;;;;;;;3.90;1.87;;;24.80;99.90;;;;;;5006803;28;20455;-66
2022/10/22 12:56:52;;;;;;;2.57;1.60;;;25.00;99.90;;;;;;5025939;28;20434;-67
2022/10/22 12:59:48;;;;;;;2.63;1.60;;;25.00;99.90;;;;;;5024657;28;20439;-67
2022/10/22 13:02:20;;;;;;;5.93;1.90;;;25.10;99.90;;;;;;4999561;28;20463;-67
2022/10/22 13:05:19;;;;;;;4.03;1.70;;;25.30;99.90;;;;;;5022951;28;20500;-66
2022/10/22 13:07:50;;;;;;;5.60;2.13;;;25.20;99.90;;;;;;5021388;28;20822;-68
2022/10/22 13:10:25;;;;;;;6.03;2.10;;;25.20;99.90;;;;;;5020643;28;20435;-68